aviador You're here:

KVNC Decoded Metar

in
Report Time2017-11-24 08:55:00
UTC Time2017-11-24 09:09:14
Flight Rules vfr VFR
Wind300° at 09 kt
W.Decomp.*RWY 31: 8.9 kt HW 1.6 kt LCW
RWY 23: 3.1 kt HW 8.5 kt RCW
W.Rank300° ranks 13
Current wind is below 300° avg. (9.3)
Visibility9999 m
Phenomena:N/A
Clouds:N/A
Expected CloudBase > 800 ft AGL from Temp-Dew spread
CeilingNone
Temp21°C
Dew Point19°C (88% RH)
QNH1010 hPa
Raw Report
METAR KVNC 240855Z AUTO 30009KT 10SM CLR 21/19 A2984 RMK AO2=

Extra information for KVNC:More info

Social comments